Filey, United Kingdom
Current Conditions -  °F | °C
As of 3:50 AM on Friday 19 Dec 2014 (Local Time) from EGXV Reporting Station
Few Clouds Few Clouds  
Wind Chill: 41°   Ceiling: Unl
Heat Index: 46°   Visibility: 6mi
Dew Point: 39°   Wind: 12mph
Humidity: 76%   Direction: 270°W
Pressure: 29.62"   Gusts: NA
Location:  54.21°N, 0.29°W
Report Text: EGXV 190350Z AUTO 27010KT 9999 FEW140/// 08/04 Q1003
Loading
Personal Weather Stations






























Interactive Weather Map New forecast layout! Learn more

10-Day Weather Forecast

Advertisements
Track Severe Weather on mobile